Devine, Texas
Current Conditions -  °F | °C
As of 5:15 PM on Wednesday 22 Oct 2014 (Local Time) from KCVB Reporting Station
Clear Clear  
Wind Chill: 82°   Ceiling: Unl
Heat Index: 82°   Visibility: 10mi
Dew Point: 50°   Wind: 6mph
Humidity: 33%   Direction: 120°ESE
Pressure: 30.04"   Gusts: NA
Location:  29.14°N, 98.91°W
Report Text: KCVB 222215Z AUTO 12005KT 10SM CLR 28/10 A3004 RMK AO2 T02790100
Loading
Personal Weather Stations






























Interactive Weather Map
Tropical Storm Tracking
New forecast layout! Learn more

10-Day Weather Forecast

Advertisements
Track Severe Weather on mobile